createdAt,value
2022-08-05T00:01:35.949Z,20.26
2022-08-05T00:04:16.953Z,20.28
2022-08-05T00:06:47.084Z,20.17
2022-08-05T00:09:20.247Z,20.10
2022-08-05T00:11:55.777Z,20.17
2022-08-05T00:14:31.405Z,20.13
2022-08-05T00:17:02.053Z,20.10
2022-08-05T00:19:33.673Z,19.97
2022-08-05T00:22:11.406Z,20.06
2022-08-05T00:24:42.231Z,20.15
2022-08-05T00:27:13.991Z,20.18
2022-08-05T00:29:45.177Z,20.09
2022-08-05T00:32:15.022Z,20.01
2022-08-05T00:35:03.640Z,20.13
2022-08-05T00:37:51.190Z,20.12
2022-08-05T00:40:28.339Z,20.15
2022-08-05T00:42:59.861Z,20.11
2022-08-05T00:45:38.547Z,20.10
2022-08-05T00:48:09.331Z,20.05
2022-08-05T00:50:38.340Z,20.00
2022-08-05T00:53:09.614Z,20.02
2022-08-05T00:55:54.978Z,19.91
2022-08-05T00:58:27.685Z,19.91
2022-08-05T01:00:56.565Z,19.83
2022-08-05T01:03:33.469Z,19.79
2022-08-05T01:06:05.465Z,19.82
2022-08-05T01:08:42.935Z,19.68
2022-08-05T01:11:22.417Z,19.68
2022-08-05T01:14:15.644Z,19.57
2022-08-05T01:16:50.511Z,19.50
2022-08-05T01:19:57.220Z,19.44
2022-08-05T01:22:39.667Z,19.42
2022-08-05T01:25:40.085Z,19.41
2022-08-05T01:28:29.968Z,19.33
2022-08-05T01:31:03.096Z,19.29
2022-08-05T01:33:36.126Z,19.22
2022-08-05T01:36:13.061Z,19.20
2022-08-05T01:38:48.415Z,19.16
2022-08-05T01:41:21.851Z,19.08
2022-08-05T01:43:53.428Z,19.08
2022-08-05T01:46:42.395Z,19.08
2022-08-05T01:49:24.449Z,19.02
2022-08-05T01:51:59.912Z,19.01
2022-08-05T01:54:34.292Z,19.00
2022-08-05T01:58:10.214Z,19.01
2022-08-05T02:00:11.554Z,18.98
2022-08-05T02:02:51.148Z,19.02
2022-08-05T02:05:28.510Z,18.97
2022-08-05T02:08:01.410Z,19.02
2022-08-05T02:10:39.427Z,19.03
2022-08-05T02:13:16.208Z,19.02
2022-08-05T02:15:51.545Z,19.02
2022-08-05T02:18:34.503Z,19.10
2022-08-05T02:21:13.249Z,19.15
2022-08-05T02:23:49.882Z,19.21
2022-08-05T02:26:30.066Z,19.21
2022-08-05T02:29:04.006Z,19.24
2022-08-05T02:31:49.860Z,19.23
2022-08-05T02:34:27.420Z,19.28
2022-08-05T02:37:09.417Z,19.22
2022-08-05T02:39:41.344Z,19.12
2022-08-05T02:42:10.592Z,19.11
2022-08-05T02:45:00.040Z,19.12
2022-08-05T02:47:58.557Z,19.08
2022-08-05T02:50:26.426Z,19.10
2022-08-05T02:53:06.818Z,19.07
2022-08-05T02:55:53.959Z,19.05
2022-08-05T02:58:30.594Z,19.07
2022-08-05T03:01:02.867Z,19.02
2022-08-05T03:04:02.582Z,18.98
2022-08-05T03:06:57.025Z,18.97
2022-08-05T03:09:27.066Z,18.94
2022-08-05T03:12:06.369Z,18.94
2022-08-05T03:14:46.066Z,18.91
2022-08-05T03:17:17.763Z,18.85
2022-08-05T03:19:53.289Z,18.80
2022-08-05T03:22:32.196Z,18.71
2022-08-05T03:25:11.567Z,18.66
2022-08-05T03:27:59.912Z,18.64
2022-08-05T03:30:34.047Z,18.58
2022-08-05T03:33:03.027Z,18.53
2022-08-05T03:35:41.215Z,18.48
2022-08-05T03:38:12.528Z,18.41
2022-08-05T03:40:45.366Z,18.40
2022-08-05T03:44:09.467Z,18.32
2022-08-05T03:46:08.075Z,18.33
2022-08-05T03:48:36.905Z,18.36
2022-08-05T03:52:38.086Z,18.28
2022-08-05T03:55:06.836Z,18.36
2022-08-05T03:56:58.967Z,18.27
2022-08-05T03:59:54.322Z,18.25
2022-08-05T04:02:38.415Z,18.14
2022-08-05T04:05:12.165Z,18.09
2022-08-05T04:07:57.416Z,18.11
2022-08-05T04:10:31.955Z,18.03
2022-08-05T04:13:04.223Z,18.03
2022-08-05T04:15:36.172Z,17.95
2022-08-05T04:18:06.879Z,17.92
2022-08-05T04:20:36.279Z,17.84
2022-08-05T04:23:05.977Z,17.83
2022-08-05T04:26:00.520Z,17.77
2022-08-05T04:28:30.911Z,17.76
2022-08-05T04:31:01.549Z,17.73
2022-08-05T04:34:17.118Z,17.68
2022-08-05T04:36:49.816Z,17.74
2022-08-05T04:39:10.906Z,17.72
2022-08-05T04:41:41.313Z,17.73
2022-08-05T04:44:10.019Z,17.69
2022-08-05T04:46:38.972Z,17.67
2022-08-05T04:49:12.100Z,17.65
2022-08-05T04:51:43.039Z,17.55
2022-08-05T04:54:14.828Z,17.60
2022-08-05T04:56:43.867Z,17.63
2022-08-05T04:59:17.439Z,17.59
2022-08-05T05:02:07.331Z,17.63
2022-08-05T05:04:38.420Z,17.63
2022-08-05T05:07:12.738Z,17.67
2022-08-05T05:09:45.831Z,17.75
2022-08-05T05:12:14.962Z,17.75
2022-08-05T05:14:50.735Z,17.76
2022-08-05T05:17:23.740Z,17.81
2022-08-05T05:19:56.594Z,17.74
2022-08-05T05:22:26.376Z,17.72
2022-08-05T05:25:00.157Z,17.73
2022-08-05T05:27:41.150Z,17.69
2022-08-05T05:30:15.528Z,17.78
2022-08-05T05:33:00.878Z,17.80
2022-08-05T05:35:37.589Z,17.80
2022-08-05T05:38:09.509Z,17.85
2022-08-05T05:40:49.543Z,17.93
2022-08-05T05:43:22.255Z,17.94
2022-08-05T05:46:15.645Z,17.88
2022-08-05T05:48:45.855Z,17.93
2022-08-05T05:51:23.052Z,17.93
2022-08-05T05:53:57.806Z,17.92
2022-08-05T05:56:34.509Z,18.14
2022-08-05T05:59:05.868Z,18.19
2022-08-05T06:01:38.197Z,18.22
2022-08-05T06:04:11.954Z,18.36
2022-08-05T06:06:42.651Z,18.48
2022-08-05T06:09:16.743Z,18.42
2022-08-05T06:11:59.094Z,18.39
2022-08-05T06:14:29.003Z,18.29
2022-08-05T06:16:57.876Z,18.25
2022-08-05T06:19:34.745Z,18.34
2022-08-05T06:22:04.195Z,18.25
2022-08-05T06:24:48.095Z,18.24
2022-08-05T06:28:11.407Z,18.25
2022-08-05T06:30:16.797Z,18.27
2022-08-05T06:32:48.629Z,18.52
2022-08-05T06:36:03.831Z,18.68
2022-08-05T06:38:11.666Z,18.85
2022-08-05T06:40:42.126Z,18.92
2022-08-05T06:43:57.506Z,18.97
2022-08-05T06:46:03.950Z,19.01
2022-08-05T06:48:55.841Z,19.05
2022-08-05T06:51:30.217Z,18.92
2022-08-05T06:54:02.426Z,19.09
2022-08-05T06:56:34.665Z,19.32
2022-08-05T06:59:09.358Z,19.43
2022-08-05T07:01:41.520Z,19.60
2022-08-05T07:04:11.053Z,19.57
2022-08-05T07:06:42.443Z,19.59
2022-08-05T07:09:10.946Z,19.50
2022-08-05T07:11:41.289Z,19.41
2022-08-05T07:14:30.307Z,19.29
2022-08-05T07:17:58.406Z,19.22
2022-08-05T07:20:34.187Z,19.23
2022-08-05T07:22:38.949Z,19.52
2022-08-05T07:25:09.454Z,19.68
2022-08-05T07:27:58.239Z,19.88
2022-08-05T07:30:32.570Z,19.90
2022-08-05T07:33:08.836Z,20.10
2022-08-05T07:36:01.558Z,20.09
2022-08-05T07:38:34.512Z,20.33
2022-08-05T07:42:09.547Z,20.26
2022-08-05T07:43:56.573Z,20.41
2022-08-05T07:46:29.625Z,20.45
2022-08-05T07:49:05.450Z,20.41
2022-08-05T07:51:36.663Z,20.49
2022-08-05T07:54:08.345Z,20.55
2022-08-05T07:57:00.062Z,20.63
2022-08-05T07:59:38.981Z,20.44
2022-08-05T08:02:16.920Z,20.55
2022-08-05T08:04:48.180Z,20.71
2022-08-05T08:07:22.367Z,21.08
2022-08-05T08:09:55.005Z,21.18
2022-08-05T08:12:35.134Z,21.10
2022-08-05T08:15:15.782Z,21.01
2022-08-05T08:17:52.908Z,21.43
2022-08-05T08:20:44.542Z,21.74
2022-08-05T08:24:02.215Z,21.81
2022-08-05T08:26:04.551Z,21.40
2022-08-05T08:28:36.995Z,20.99
2022-08-05T08:31:22.224Z,21.17
2022-08-05T08:33:53.255Z,21.55
2022-08-05T08:36:38.105Z,21.68
2022-08-05T08:39:15.114Z,21.99
2022-08-05T08:41:51.966Z,22.13
2022-08-05T08:45:19.237Z,21.93
2022-08-05T08:48:06.404Z,21.44
2022-08-05T08:50:31.930Z,21.93
2022-08-05T08:53:08.326Z,22.23
2022-08-05T08:56:05.320Z,22.82
2022-08-05T08:58:43.664Z,22.39
2022-08-05T09:01:17.092Z,22.01
2022-08-05T09:03:55.158Z,21.65
2022-08-05T09:06:29.409Z,21.11
2022-08-05T09:09:00.534Z,20.92
2022-08-05T09:11:50.686Z,21.35
2022-08-05T09:14:58.318Z,21.89
2022-08-05T09:17:09.430Z,22.22
2022-08-05T09:20:01.586Z,22.55
2022-08-05T09:22:30.855Z,22.67
2022-08-05T09:25:01.313Z,23.08
2022-08-05T09:28:05.339Z,22.68
2022-08-05T09:30:23.894Z,22.12
2022-08-05T09:32:52.776Z,21.85
2022-08-05T09:35:27.056Z,21.61
2022-08-05T09:38:12.375Z,22.17
2022-08-05T09:40:53.800Z,23.10
2022-08-05T09:43:41.055Z,23.02
2022-08-05T09:46:28.526Z,22.62
2022-08-05T09:49:06.864Z,23.03
2022-08-05T09:51:39.882Z,23.01
2022-08-05T09:54:11.754Z,23.08
2022-08-05T09:56:52.247Z,23.68
2022-08-05T09:59:27.786Z,23.07
2022-08-05T10:01:59.313Z,22.28
2022-08-05T10:04:38.416Z,21.84
2022-08-05T10:07:31.938Z,21.72
2022-08-05T10:10:13.938Z,23.12
2022-08-05T10:12:49.619Z,23.77
2022-08-05T10:15:24.185Z,23.44
2022-08-05T10:18:06.429Z,22.64
2022-08-05T10:20:37.927Z,22.26
2022-08-05T10:23:21.916Z,22.01
2022-08-05T10:25:57.817Z,22.34
2022-08-05T10:28:29.096Z,22.19
2022-08-05T10:32:50.751Z,22.35
2022-08-05T10:33:52.308Z,22.38
2022-08-05T10:36:23.694Z,22.27
2022-08-05T10:39:05.278Z,22.68
2022-08-05T10:41:51.379Z,22.72
2022-08-05T10:44:22.768Z,22.40
2022-08-05T10:46:54.330Z,22.03
2022-08-05T10:49:27.089Z,22.11
2022-08-05T10:52:05.031Z,22.14
2022-08-05T10:55:03.164Z,23.45
2022-08-05T10:57:33.883Z,24.10
2022-08-05T11:00:19.637Z,23.69
2022-08-05T11:03:23.172Z,22.91
2022-08-05T11:06:14.604Z,22.83
2022-08-05T11:09:17.708Z,22.35
2022-08-05T11:11:56.537Z,21.89
2022-08-05T11:14:57.358Z,21.95
2022-08-05T11:17:57.862Z,22.10
2022-08-05T11:20:39.279Z,22.65
2022-08-05T11:24:02.919Z,23.57
2022-08-05T11:26:28.299Z,23.16
2022-08-05T11:29:12.311Z,22.71
2022-08-05T11:31:57.500Z,23.17
2022-08-05T11:34:50.918Z,23.74
2022-08-05T11:38:37.192Z,23.73
2022-08-05T11:41:14.060Z,24.28
2022-08-05T11:44:06.214Z,24.87
2022-08-05T11:46:58.343Z,24.95
2022-08-05T11:49:28.766Z,25.01
2022-08-05T11:51:57.671Z,24.85
2022-08-05T11:54:32.629Z,24.56
2022-08-05T11:57:07.726Z,23.41
2022-08-05T11:59:49.814Z,22.49
2022-08-05T12:02:24.143Z,21.97
2022-08-05T12:05:07.895Z,22.99
2022-08-05T12:08:03.248Z,24.31
2022-08-05T12:10:45.160Z,24.27
2022-08-05T12:13:18.909Z,24.32
2022-08-05T12:16:15.468Z,24.43
2022-08-05T12:18:52.137Z,23.60
2022-08-05T12:21:26.786Z,23.46
2022-08-05T12:24:09.893Z,23.15
2022-08-05T12:26:39.769Z,22.92
2022-08-05T12:29:16.294Z,23.72
2022-08-05T12:31:53.125Z,23.23
2022-08-05T12:34:26.773Z,23.23
2022-08-05T12:36:58.431Z,24.25
2022-08-05T12:39:34.391Z,24.71
2022-08-05T12:42:14.824Z,23.99
2022-08-05T12:44:44.643Z,24.84
2022-08-05T12:47:25.455Z,24.99
2022-08-05T12:50:04.009Z,24.77
2022-08-05T12:52:39.487Z,25.19
2022-08-05T12:55:23.629Z,25.40
2022-08-05T12:58:50.346Z,25.75
2022-08-05T13:02:01.008Z,24.73
2022-08-05T13:03:33.474Z,24.62
2022-08-05T13:06:03.072Z,24.90
2022-08-05T13:08:33.014Z,25.48
2022-08-05T13:11:02.221Z,24.48
2022-08-05T13:14:04.698Z,23.76
2022-08-05T13:16:25.145Z,24.27
2022-08-05T13:18:55.045Z,25.81
2022-08-05T13:21:28.497Z,25.72
2022-08-05T13:24:08.969Z,26.03
2022-08-05T13:26:37.467Z,25.86
2022-08-05T13:29:06.120Z,25.81
2022-08-05T13:32:04.605Z,25.77
2022-08-05T13:34:25.883Z,25.76
2022-08-05T13:36:55.273Z,26.21
2022-08-05T13:40:16.235Z,25.86
2022-08-05T13:42:16.265Z,25.58
2022-08-05T13:44:46.072Z,25.60
2022-08-05T13:47:34.715Z,26.06
2022-08-05T13:50:04.512Z,25.12
2022-08-05T13:52:35.634Z,24.48
2022-08-05T13:55:08.013Z,24.58
2022-08-05T13:57:49.050Z,24.44
2022-08-05T14:00:27.194Z,24.39
2022-08-05T14:02:57.348Z,25.16
2022-08-05T14:05:48.552Z,23.65
2022-08-05T14:08:21.385Z,24.24
2022-08-05T14:11:03.244Z,25.13
2022-08-05T14:13:48.206Z,25.60
2022-08-05T14:16:19.229Z,24.84
2022-08-05T14:18:47.777Z,25.59
2022-08-05T14:21:23.819Z,25.94
2022-08-05T14:24:04.886Z,24.48
2022-08-05T14:26:36.812Z,23.40
2022-08-05T14:29:16.310Z,22.70
2022-08-05T14:32:03.109Z,23.55
2022-08-05T14:34:35.117Z,24.14
2022-08-05T14:37:04.605Z,24.92
2022-08-05T14:39:49.736Z,25.96
2022-08-05T14:42:23.415Z,25.60
2022-08-05T14:44:53.795Z,24.24
2022-08-05T14:48:03.236Z,24.75
2022-08-05T14:50:19.106Z,24.95
2022-08-05T14:52:56.922Z,23.45
2022-08-05T14:55:38.546Z,24.59
2022-08-05T14:58:10.836Z,24.99
2022-08-05T15:00:59.092Z,26.67
2022-08-05T15:03:33.383Z,24.92
2022-08-05T15:06:13.480Z,23.70
2022-08-05T15:08:58.173Z,23.36
2022-08-05T15:11:51.223Z,22.87
2022-08-05T15:14:34.457Z,23.11
2022-08-05T15:17:10.014Z,24.53
2022-08-05T15:19:55.158Z,25.22
2022-08-05T15:22:27.197Z,24.53
2022-08-05T15:24:59.199Z,24.19
2022-08-05T15:27:35.905Z,22.35
2022-08-05T15:30:06.633Z,22.08
2022-08-05T15:32:35.042Z,25.01
2022-08-05T15:35:09.975Z,22.57
2022-08-05T15:38:33.494Z,21.28
2022-08-05T15:40:58.699Z,21.50
2022-08-05T15:43:20.088Z,21.74
2022-08-05T15:46:00.442Z,21.49
2022-08-05T15:48:30.959Z,23.43
2022-08-05T15:51:03.456Z,22.93
2022-08-05T15:53:38.563Z,21.51
2022-08-05T15:56:19.774Z,20.87
2022-08-05T15:58:48.423Z,22.21
2022-08-05T16:01:20.049Z,21.31
2022-08-05T16:03:50.889Z,20.77
2022-08-05T16:06:22.778Z,20.15
2022-08-05T16:08:53.680Z,19.97
2022-08-05T16:11:42.872Z,20.06
2022-08-05T16:14:17.529Z,22.61
2022-08-05T16:16:48.547Z,22.62
2022-08-05T16:19:18.889Z,25.19
2022-08-05T16:21:58.721Z,25.77
2022-08-05T16:24:40.321Z,23.01
2022-08-05T16:27:15.996Z,20.94
2022-08-05T16:29:51.099Z,23.72
2022-08-05T16:32:23.222Z,25.38
2022-08-05T16:34:58.966Z,25.98
2022-08-05T16:38:14.885Z,26.11
2022-08-05T16:40:26.540Z,23.71
2022-08-05T16:42:58.003Z,24.15
2022-08-05T16:46:04.416Z,22.94
2022-08-05T16:48:25.461Z,21.85
2022-08-05T16:50:55.256Z,21.13
2022-08-05T16:53:32.523Z,21.87
2022-08-05T16:56:12.407Z,21.30
2022-08-05T16:58:41.242Z,20.33
2022-08-05T17:01:10.359Z,23.53
2022-08-05T17:03:40.324Z,25.13
2022-08-05T17:06:09.497Z,26.43
2022-08-05T17:08:52.788Z,27.52
2022-08-05T17:11:23.366Z,26.56
2022-08-05T17:14:00.663Z,26.34
2022-08-05T17:16:36.407Z,27.23
2022-08-05T17:19:09.601Z,25.88
2022-08-05T17:21:40.072Z,25.95
2022-08-05T17:24:19.890Z,25.30
2022-08-05T17:26:59.242Z,25.37
2022-08-05T17:29:33.324Z,24.45
2022-08-05T17:32:08.624Z,23.07
2022-08-05T17:34:41.984Z,22.39
2022-08-05T17:37:27.358Z,21.33
2022-08-05T17:40:00.254Z,20.62
2022-08-05T17:42:30.100Z,19.94
2022-08-05T17:45:09.911Z,19.53
2022-08-05T17:47:53.551Z,19.08
2022-08-05T17:50:28.190Z,18.89
2022-08-05T17:52:58.954Z,18.65
2022-08-05T17:55:37.587Z,18.69
2022-08-05T17:58:09.754Z,18.65
2022-08-05T18:00:40.801Z,18.53
2022-08-05T18:03:28.201Z,18.53
2022-08-05T18:06:12.006Z,18.52
2022-08-05T18:08:46.079Z,18.44
2022-08-05T18:11:23.738Z,18.38
2022-08-05T18:14:03.650Z,18.38
2022-08-05T18:16:33.251Z,18.27
2022-08-05T18:19:01.835Z,18.26
2022-08-05T18:22:08.891Z,18.19
2022-08-05T18:24:19.858Z,18.09
2022-08-05T18:26:49.363Z,18.08
2022-08-05T18:29:17.719Z,18.03
2022-08-05T18:32:06.786Z,17.95
2022-08-05T18:34:42.788Z,17.83
2022-08-05T18:37:12.844Z,17.80
2022-08-05T18:40:33.930Z,17.88
2022-08-05T18:42:49.712Z,17.69
2022-08-05T18:45:22.976Z,17.73
2022-08-05T18:47:56.737Z,17.74
2022-08-05T18:50:46.491Z,17.56
2022-08-05T18:53:22.165Z,17.45
2022-08-05T18:55:53.000Z,17.44
2022-08-05T18:58:27.271Z,17.26
2022-08-05T19:00:57.568Z,17.34
2022-08-05T19:03:53.392Z,17.26
2022-08-05T19:06:21.542Z,17.15
2022-08-05T19:08:52.134Z,17.10
2022-08-05T19:11:28.467Z,17.06
2022-08-05T19:14:37.483Z,17.08
2022-08-05T19:16:53.865Z,17.02
2022-08-05T19:19:23.540Z,17.04
2022-08-05T19:21:52.394Z,16.92
2022-08-05T19:24:34.114Z,16.79
2022-08-05T19:27:04.128Z,16.77
2022-08-05T19:29:36.355Z,16.76
2022-08-05T19:32:08.770Z,16.65
2022-08-05T19:34:40.137Z,16.51
2022-08-05T19:37:10.105Z,16.57
2022-08-05T19:39:45.986Z,16.52
2022-08-05T19:42:34.931Z,16.41
2022-08-05T19:45:06.491Z,16.26
2022-08-05T19:47:37.549Z,16.04
2022-08-05T19:50:10.610Z,15.97
2022-08-05T19:52:40.912Z,15.91
2022-08-05T19:56:14.802Z,15.93
2022-08-05T19:58:07.104Z,16.00
2022-08-05T20:00:48.695Z,15.99
2022-08-05T20:03:17.295Z,15.88
2022-08-05T20:05:51.159Z,15.73
2022-08-05T20:08:20.877Z,15.59
2022-08-05T20:10:55.267Z,15.54
2022-08-05T20:13:30.180Z,15.41
2022-08-05T20:16:12.083Z,15.31
2022-08-05T20:18:40.860Z,15.28
2022-08-05T20:21:09.676Z,15.18
2022-08-05T20:23:50.820Z,15.15
2022-08-05T20:26:25.372Z,15.10
2022-08-05T20:28:56.922Z,15.04
2022-08-05T20:31:37.083Z,14.97
2022-08-05T20:34:15.112Z,14.93
2022-08-05T20:36:43.813Z,14.87
2022-08-05T20:39:13.023Z,14.78
2022-08-05T20:41:45.251Z,14.73
2022-08-05T20:44:17.551Z,14.72
2022-08-05T20:46:48.354Z,14.68
2022-08-05T20:49:24.025Z,14.67
2022-08-05T20:51:54.509Z,14.65
2022-08-05T20:54:22.919Z,14.57
2022-08-05T20:56:54.754Z,14.49
2022-08-05T20:59:26.431Z,14.42
2022-08-05T21:01:57.975Z,14.47
2022-08-05T21:04:27.549Z,14.42
2022-08-05T21:06:55.986Z,14.33
2022-08-05T21:09:24.461Z,14.24
2022-08-05T21:12:10.093Z,14.22
2022-08-05T21:14:39.689Z,14.17
2022-08-05T21:17:08.035Z,14.08
2022-08-05T21:19:46.598Z,14.01
2022-08-05T21:22:17.810Z,13.98
2022-08-05T21:24:52.794Z,13.95
2022-08-05T21:27:24.992Z,13.86
2022-08-05T21:29:55.392Z,13.85
2022-08-05T21:32:24.420Z,13.83
2022-08-05T21:35:06.679Z,13.83
2022-08-05T21:37:47.413Z,13.71
2022-08-05T21:40:22.235Z,13.64
2022-08-05T21:42:54.157Z,13.58
2022-08-05T21:45:25.027Z,13.50
2022-08-05T21:48:08.252Z,13.50
2022-08-05T21:50:37.466Z,13.46
2022-08-05T21:53:16.430Z,13.45
2022-08-05T21:56:04.410Z,13.31
2022-08-05T21:58:36.667Z,13.24
2022-08-05T22:01:11.001Z,13.19
2022-08-05T22:03:53.584Z,13.16
2022-08-05T22:06:35.649Z,13.12
2022-08-05T22:09:14.907Z,13.11
2022-08-05T22:11:47.059Z,13.04
2022-08-05T22:14:33.698Z,13.02
2022-08-05T22:17:06.921Z,13.02
2022-08-05T22:20:00.644Z,12.95
2022-08-05T22:22:26.955Z,12.91
2022-08-05T22:25:18.194Z,12.99
2022-08-05T22:28:09.620Z,12.96
2022-08-05T22:30:56.500Z,12.95
2022-08-05T22:33:57.912Z,12.93
2022-08-05T22:36:15.575Z,12.86
2022-08-05T22:38:48.193Z,12.85
2022-08-05T22:42:05.099Z,12.84
2022-08-05T22:44:08.413Z,12.82
2022-08-05T22:46:40.072Z,12.77
2022-08-05T22:49:23.307Z,12.76
2022-08-05T22:52:07.308Z,12.75
2022-08-05T22:54:37.642Z,12.70
2022-08-05T22:57:08.660Z,12.66
2022-08-05T22:59:45.514Z,12.70
2022-08-05T23:02:29.776Z,12.62
2022-08-05T23:05:02.047Z,12.63
2022-08-05T23:07:44.697Z,12.57
2022-08-05T23:10:19.494Z,12.56
2022-08-05T23:12:51.586Z,12.52
2022-08-05T23:15:29.522Z,12.43
2022-08-05T23:18:11.738Z,12.40
2022-08-05T23:20:44.549Z,12.36
2022-08-05T23:23:13.229Z,12.33
2022-08-05T23:25:51.862Z,12.32
2022-08-05T23:28:24.085Z,12.36
2022-08-05T23:31:15.839Z,12.38
2022-08-05T23:34:05.045Z,12.35
2022-08-05T23:36:40.274Z,12.35
2022-08-05T23:39:17.589Z,12.32
2022-08-05T23:42:01.309Z,12.31
2022-08-05T23:44:31.292Z,12.34
2022-08-05T23:47:02.521Z,12.30
2022-08-05T23:49:46.576Z,12.28
2022-08-05T23:52:30.681Z,12.25
2022-08-05T23:55:01.635Z,12.22
2022-08-05T23:57:33.881Z,12.21
